createdAt,value
2019-01-02T00:00:10.585Z,0
2019-01-02T00:01:20.811Z,0
2019-01-02T00:02:30.529Z,0
2019-01-02T00:03:40.497Z,0
2019-01-02T00:04:50.882Z,0
2019-01-02T00:06:01.550Z,0
2019-01-02T00:07:11.513Z,0
2019-01-02T00:08:21.307Z,0
2019-01-02T00:09:31.965Z,0
2019-01-02T00:10:42.402Z,0
2019-01-02T00:11:52.125Z,0
2019-01-02T00:13:02.967Z,0
2019-01-02T00:14:13.612Z,0
2019-01-02T00:15:23.785Z,0
2019-01-02T00:16:33.762Z,0
2019-01-02T00:17:44.643Z,0
2019-01-02T00:18:55.357Z,0
2019-01-02T00:20:05.088Z,0
2019-01-02T00:21:15.316Z,0
2019-01-02T00:22:26.289Z,0
2019-01-02T00:23:36.940Z,0
2019-01-02T00:24:46.918Z,0
2019-01-02T00:25:57.213Z,0
2019-01-02T00:27:08.147Z,0
2019-01-02T00:28:17.938Z,0
2019-01-02T00:29:27.928Z,0
2019-01-02T00:30:38.659Z,0
2019-01-02T00:31:49.050Z,0
2019-01-02T00:32:59.650Z,0
2019-01-02T00:34:09.680Z,0
2019-01-02T00:35:20.555Z,0
2019-01-02T00:36:31.206Z,0
2019-01-02T00:37:41.177Z,0
2019-01-02T00:38:52.047Z,0
2019-01-02T00:40:02.544Z,0
2019-01-02T00:41:13.123Z,0
2019-01-02T00:42:23.087Z,0
2019-01-02T00:43:33.759Z,0
2019-01-02T00:44:44.327Z,0
2019-01-02T00:45:54.069Z,0
2019-01-02T00:47:03.552Z,0
2019-01-02T00:48:14.462Z,0
2019-01-02T00:49:24.776Z,0
2019-01-02T00:50:34.511Z,0
2019-01-02T00:51:45.426Z,0
2019-01-02T00:52:56.079Z,0
2019-01-02T00:54:06.099Z,0
2019-01-02T00:55:16.651Z,0
2019-01-02T00:56:27.074Z,0
2019-01-02T00:57:37.468Z,0
2019-01-02T00:58:47.199Z,0
2019-01-02T00:59:57.938Z,0
2019-01-02T01:01:08.432Z,0
2019-01-02T01:02:18.394Z,0
2019-01-02T01:03:29.318Z,0
2019-01-02T01:04:39.846Z,0
2019-01-02T01:05:49.048Z,0
2019-01-02T01:06:59.897Z,0
2019-01-02T01:08:10.215Z,0
2019-01-02T01:09:20.624Z,0
2019-01-02T01:10:30.359Z,0
2019-01-02T01:11:41.250Z,0
2019-01-02T01:12:52.043Z,0
2019-01-02T01:14:02.025Z,0
2019-01-02T01:15:12.540Z,0
2019-01-02T01:16:23.078Z,0
2019-01-02T01:17:33.539Z,0
2019-01-02T01:18:43.240Z,0
2019-01-02T01:19:54.015Z,0
2019-01-02T01:21:04.456Z,0
2019-01-02T01:22:14.454Z,0
2019-01-02T01:23:24.566Z,0
2019-01-02T01:24:35.099Z,0
2019-01-02T01:25:45.126Z,0
2019-01-02T01:26:54.832Z,0
2019-01-02T01:28:04.788Z,0
2019-01-02T01:29:15.799Z,0
2019-01-02T01:30:26.560Z,0
2019-01-02T01:31:36.527Z,0
2019-01-02T01:32:46.504Z,0
2019-01-02T01:33:57.177Z,0
2019-01-02T01:35:06.885Z,0
2019-01-02T01:36:17.230Z,0
2019-01-02T01:37:27.206Z,0
2019-01-02T01:38:37.238Z,0
2019-01-02T01:39:47.958Z,0
2019-01-02T01:40:58.645Z,0
2019-01-02T01:42:08.624Z,0
2019-01-02T01:43:19.142Z,0
2019-01-02T01:44:30.025Z,0
2019-01-02T01:45:40.342Z,0
2019-01-02T01:46:50.335Z,0
2019-01-02T01:48:00.049Z,0
2019-01-02T01:49:10.992Z,0
2019-01-02T01:50:21.467Z,0
2019-01-02T01:51:30.932Z,0
2019-01-02T01:52:40.889Z,0
2019-01-02T01:53:51.554Z,0
2019-01-02T01:55:02.212Z,0
2019-01-02T01:56:11.936Z,0
2019-01-02T01:57:21.924Z,0
2019-01-02T01:58:32.851Z,0
2019-01-02T01:59:43.544Z,0
2019-01-02T02:00:53.936Z,0
2019-01-02T02:02:03.652Z,0
2019-01-02T02:03:14.346Z,0
2019-01-02T02:04:24.870Z,0
2019-01-02T02:05:35.115Z,0
2019-01-02T02:06:45.074Z,0
2019-01-02T02:07:55.748Z,0
2019-01-02T02:09:06.396Z,0
2019-01-02T02:10:16.610Z,0
2019-01-02T02:11:26.596Z,0
2019-01-02T02:12:36.303Z,0
2019-01-02T02:13:47.250Z,0
2019-01-02T02:14:57.640Z,0
2019-01-02T02:16:07.104Z,0
2019-01-02T02:17:17.086Z,0
2019-01-02T02:18:28.003Z,0
2019-01-02T02:19:38.560Z,0
2019-01-02T02:20:48.520Z,0
2019-01-02T02:21:58.474Z,0
2019-01-02T02:23:09.159Z,0
2019-01-02T02:24:19.137Z,0
2019-01-02T02:25:29.098Z,0
2019-01-02T02:26:38.821Z,0
2019-01-02T02:27:49.835Z,0
2019-01-02T02:29:00.198Z,0
2019-01-02T02:30:10.285Z,0
2019-01-02T02:31:21.118Z,0
2019-01-02T02:32:31.398Z,0
2019-01-02T02:33:42.430Z,0
2019-01-02T02:34:52.371Z,0
2019-01-02T02:36:02.752Z,0
2019-01-02T02:37:13.034Z,0
2019-01-02T02:38:24.088Z,0
2019-01-02T02:39:35.438Z,0
2019-01-02T02:40:45.862Z,0
2019-01-02T02:41:56.652Z,0
2019-01-02T02:43:07.572Z,0
2019-01-02T02:44:18.241Z,0
2019-01-02T02:45:29.992Z,0
2019-01-02T02:46:40.686Z,0
2019-01-02T02:47:51.590Z,0
2019-01-02T02:49:03.032Z,0
2019-01-02T02:50:13.705Z,0
2019-01-02T02:51:24.795Z,0
2019-01-02T02:52:34.916Z,0
2019-01-02T02:53:45.409Z,0
2019-01-02T02:54:55.908Z,0
2019-01-02T02:56:06.441Z,0
2019-01-02T02:57:16.948Z,0
2019-01-02T02:58:27.273Z,0
2019-01-02T02:59:38.500Z,0
2019-01-02T03:00:49.821Z,0
2019-01-02T03:02:01.321Z,0
2019-01-02T03:03:11.645Z,0
2019-01-02T03:04:22.218Z,0
2019-01-02T03:05:32.736Z,0
2019-01-02T03:06:44.324Z,0
2019-01-02T03:07:57.748Z,0
2019-01-02T03:09:08.294Z,0
2019-01-02T03:10:19.014Z,0
2019-01-02T03:11:29.981Z,0
2019-01-02T03:12:40.295Z,0
2019-01-02T03:13:51.479Z,0
2019-01-02T03:15:01.549Z,0
2019-01-02T03:16:12.485Z,0
2019-01-02T03:17:23.493Z,0
2019-01-02T03:18:34.635Z,0
2019-01-02T03:19:45.507Z,0
2019-01-02T03:20:56.060Z,0
2019-01-02T03:22:06.671Z,0
2019-01-02T03:23:18.072Z,0
2019-01-02T03:24:28.506Z,0
2019-01-02T03:25:39.785Z,0
2019-01-02T03:26:50.210Z,0
2019-01-02T03:28:01.139Z,0
2019-01-02T03:29:12.216Z,0
2019-01-02T03:30:23.738Z,0
2019-01-02T03:31:35.340Z,0
2019-01-02T03:32:46.827Z,0
2019-01-02T03:33:57.585Z,0
2019-01-02T03:35:07.512Z,0
2019-01-02T03:36:17.437Z,0
2019-01-02T03:37:27.111Z,0
2019-01-02T03:38:37.045Z,0
2019-01-02T03:39:46.728Z,0
2019-01-02T03:40:56.427Z,0
2019-01-02T03:42:06.387Z,0
2019-01-02T03:43:16.333Z,0
2019-01-02T03:44:26.035Z,0
2019-01-02T03:45:36.001Z,0
2019-01-02T03:46:45.686Z,0
2019-01-02T03:47:55.619Z,0
2019-01-02T03:49:05.055Z,0
2019-01-02T03:50:14.494Z,0
2019-01-02T03:51:24.435Z,0
2019-01-02T03:52:33.843Z,0
2019-01-02T03:53:43.270Z,0
2019-01-02T03:54:52.699Z,0
2019-01-02T03:56:02.406Z,0
2019-01-02T03:57:12.122Z,0
2019-01-02T03:58:21.565Z,0
2019-01-02T03:59:30.898Z,0
2019-01-02T04:00:40.841Z,0
2019-01-02T04:01:50.779Z,0
2019-01-02T04:03:00.231Z,0
2019-01-02T04:04:10.161Z,0
2019-01-02T04:05:19.837Z,0
2019-01-02T04:06:29.775Z,0
2019-01-02T04:07:39.468Z,0
2019-01-02T04:08:49.388Z,0
2019-01-02T04:09:59.060Z,0
2019-01-02T04:11:08.511Z,0
2019-01-02T04:12:18.198Z,0
2019-01-02T04:13:28.144Z,0
2019-01-02T04:14:38.113Z,0
2019-01-02T04:15:48.043Z,0
2019-01-02T04:16:57.734Z,0
2019-01-02T04:18:07.682Z,0
2019-01-02T04:19:17.373Z,0
2019-01-02T04:20:27.312Z,0
2019-01-02T04:21:37.278Z,0
2019-01-02T04:22:46.971Z,0
2019-01-02T04:23:56.409Z,0
2019-01-02T04:25:06.094Z,0
2019-01-02T04:26:15.781Z,0
2019-01-02T04:27:25.717Z,0
2019-01-02T04:28:35.410Z,0
2019-01-02T04:29:45.110Z,0
2019-01-02T04:30:55.038Z,0
2019-01-02T04:32:04.741Z,0
2019-01-02T04:33:14.168Z,0
2019-01-02T04:34:24.114Z,0
2019-01-02T04:35:34.044Z,0
2019-01-02T04:36:44.020Z,0
2019-01-02T04:37:53.964Z,0
2019-01-02T04:39:03.908Z,0
2019-01-02T04:40:15.259Z,0
2019-01-02T04:41:24.699Z,0
2019-01-02T04:42:34.384Z,0
2019-01-02T04:43:44.079Z,0
2019-01-02T04:44:53.774Z,0
2019-01-02T04:46:03.455Z,0
2019-01-02T04:47:13.380Z,0
2019-01-02T04:48:23.052Z,0
2019-01-02T04:49:32.486Z,0
2019-01-02T04:50:42.430Z,0
2019-01-02T04:51:52.372Z,0
2019-01-02T04:53:02.055Z,0
2019-01-02T04:54:12.011Z,0
2019-01-02T04:55:21.966Z,0
2019-01-02T04:56:31.906Z,0
2019-01-02T04:57:41.844Z,0
2019-01-02T04:58:51.783Z,0
2019-01-02T05:00:01.479Z,0
2019-01-02T05:01:11.839Z,0
2019-01-02T05:02:21.818Z,0
2019-01-02T05:03:31.749Z,0
2019-01-02T05:04:41.692Z,0
2019-01-02T05:05:51.624Z,0
2019-01-02T05:07:01.304Z,0
2019-01-02T05:08:10.987Z,0
2019-01-02T05:09:20.917Z,0
2019-01-02T05:10:30.610Z,0
2019-01-02T05:11:40.570Z,0
2019-01-02T05:12:50.258Z,0
2019-01-02T05:14:00.211Z,0
2019-01-02T05:15:10.141Z,0
2019-01-02T05:16:20.086Z,0
2019-01-02T05:17:30.016Z,0
2019-01-02T05:18:39.967Z,0
2019-01-02T05:19:49.896Z,0
2019-01-02T05:20:59.628Z,0
2019-01-02T05:22:09.327Z,0
2019-01-02T05:23:19.016Z,0
2019-01-02T05:24:28.950Z,0
2019-01-02T05:25:38.678Z,0
2019-01-02T05:26:48.353Z,0
2019-01-02T05:27:58.326Z,0
2019-01-02T05:29:08.272Z,0
2019-01-02T05:30:18.116Z,0
2019-01-02T05:31:27.813Z,0
2019-01-02T05:32:37.769Z,0
2019-01-02T05:33:47.719Z,0
2019-01-02T05:34:57.413Z,0
2019-01-02T05:36:07.335Z,0
2019-01-02T05:37:17.027Z,0
2019-01-02T05:38:26.981Z,0
2019-01-02T05:39:36.423Z,0
2019-01-02T05:40:46.107Z,0
2019-01-02T05:41:56.042Z,0
2019-01-02T05:43:05.985Z,0
2019-01-02T05:44:15.923Z,0
2019-01-02T05:45:25.854Z,0
2019-01-02T05:46:35.793Z,0
2019-01-02T05:47:45.479Z,0
2019-01-02T05:48:55.172Z,0
2019-01-02T05:50:05.117Z,0
2019-01-02T05:51:15.057Z,0
2019-01-02T05:52:24.749Z,0
2019-01-02T05:53:34.691Z,0
2019-01-02T05:54:44.643Z,0
2019-01-02T05:55:54.648Z,0
2019-01-02T05:57:04.593Z,0
2019-01-02T05:58:14.565Z,0
2019-01-02T05:59:24.017Z,0
2019-01-02T06:00:39.652Z,0
2019-01-02T06:01:49.210Z,0
2019-01-02T06:02:58.899Z,0
2019-01-02T06:04:08.579Z,0
2019-01-02T06:05:18.269Z,0
2019-01-02T06:06:28.237Z,0
2019-01-02T06:07:38.171Z,0
2019-01-02T06:08:48.108Z,0
2019-01-02T06:09:58.047Z,0
2019-01-02T06:11:07.974Z,0
2019-01-02T06:12:17.412Z,0
2019-01-02T06:13:27.351Z,0
2019-01-02T06:14:37.047Z,0
2019-01-02T06:15:46.975Z,0
2019-01-02T06:16:56.654Z,0
2019-01-02T06:18:06.346Z,0
2019-01-02T06:19:16.282Z,0
2019-01-02T06:20:26.230Z,0
2019-01-02T06:21:35.670Z,0
2019-01-02T06:22:45.618Z,0
2019-01-02T06:23:55.317Z,0
2019-01-02T06:25:05.316Z,0
2019-01-02T06:26:15.024Z,0
2019-01-02T06:27:24.965Z,0
2019-01-02T06:28:34.891Z,0
2019-01-02T06:29:44.875Z,0
2019-01-02T06:30:54.562Z,0
2019-01-02T06:32:04.248Z,0
2019-01-02T06:33:14.192Z,0
2019-01-02T06:34:23.900Z,0
2019-01-02T06:35:33.580Z,0
2019-01-02T06:36:43.264Z,0
2019-01-02T06:37:53.209Z,4
2019-01-02T06:39:03.159Z,4
2019-01-02T06:40:12.859Z,4
2019-01-02T06:41:22.548Z,4
2019-01-02T06:42:32.488Z,4
2019-01-02T06:43:42.417Z,8
2019-01-02T06:44:52.104Z,4
2019-01-02T06:46:01.791Z,8
2019-01-02T06:47:11.724Z,8
2019-01-02T06:48:21.661Z,8
2019-01-02T06:49:31.624Z,12
2019-01-02T06:50:41.554Z,16
2019-01-02T06:51:50.981Z,12
2019-01-02T06:53:00.657Z,16
2019-01-02T06:54:10.592Z,20
2019-01-02T06:55:20.542Z,28
2019-01-02T06:56:29.990Z,32
2019-01-02T06:57:39.933Z,40
2019-01-02T06:58:49.635Z,52
2019-01-02T07:00:00.236Z,60
2019-01-02T07:01:10.168Z,60
2019-01-02T07:02:19.855Z,72
2019-01-02T07:03:29.568Z,76
2019-01-02T07:04:39.498Z,96
2019-01-02T07:05:49.194Z,120
2019-01-02T07:06:58.886Z,132
2019-01-02T07:08:08.651Z,156
2019-01-02T07:09:18.600Z,180
2019-01-02T07:10:28.550Z,196
2019-01-02T07:11:38.498Z,212
2019-01-02T07:12:48.457Z,224
2019-01-02T07:13:58.154Z,228
2019-01-02T07:15:08.100Z,240
2019-01-02T07:16:17.794Z,268
2019-01-02T07:17:27.254Z,288
2019-01-02T07:18:37.195Z,316
2019-01-02T07:19:46.908Z,364
2019-01-02T07:20:56.588Z,400
2019-01-02T07:22:06.293Z,404
2019-01-02T07:23:16.003Z,412
2019-01-02T07:24:25.953Z,440
2019-01-02T07:25:35.397Z,468
2019-01-02T07:26:45.378Z,480
2019-01-02T07:27:55.938Z,476
2019-01-02T07:29:05.875Z,468
2019-01-02T07:30:15.566Z,460
2019-01-02T07:31:25.503Z,444
2019-01-02T07:32:35.196Z,436
2019-01-02T07:33:44.885Z,512
2019-01-02T07:34:54.820Z,516
2019-01-02T07:36:04.770Z,484
2019-01-02T07:37:14.722Z,552
2019-01-02T07:38:24.663Z,660
2019-01-02T07:39:34.357Z,740
2019-01-02T07:40:44.042Z,776
2019-01-02T07:41:53.731Z,736
2019-01-02T07:43:03.680Z,688
2019-01-02T07:44:13.628Z,704
2019-01-02T07:45:23.338Z,732
2019-01-02T07:46:33.031Z,732
2019-01-02T07:47:42.732Z,756
2019-01-02T07:48:52.415Z,860
2019-01-02T07:50:02.366Z,852
2019-01-02T07:51:12.058Z,900
2019-01-02T07:52:21.786Z,932
2019-01-02T07:53:31.720Z,964
2019-01-02T07:54:41.667Z,1008
2019-01-02T07:55:51.358Z,1032
2019-01-02T07:57:01.345Z,1064
2019-01-02T07:58:11.034Z,1120
2019-01-02T07:59:20.983Z,1200
2019-01-02T08:00:30.671Z,1272
2019-01-02T08:01:40.634Z,1308
2019-01-02T08:02:50.324Z,1308
2019-01-02T08:04:00.272Z,1296
2019-01-02T08:05:10.212Z,1328
2019-01-02T08:06:20.158Z,1392
2019-01-02T08:07:30.084Z,1428
2019-01-02T08:08:39.771Z,1464
2019-01-02T08:09:49.715Z,1484
2019-01-02T08:10:58.902Z,1508
2019-01-02T08:12:08.593Z,1548
2019-01-02T08:13:18.300Z,1596
2019-01-02T08:14:28.253Z,1664
2019-01-02T08:15:38.183Z,1736
2019-01-02T08:16:47.870Z,1752
2019-01-02T08:17:57.844Z,1700
2019-01-02T08:19:07.798Z,1592
2019-01-02T08:20:17.253Z,1540
2019-01-02T08:21:26.935Z,1680
2019-01-02T08:22:36.626Z,1720
2019-01-02T08:23:46.306Z,1760
2019-01-02T08:24:55.994Z,1784
2019-01-02T08:26:05.444Z,1844
2019-01-02T08:27:15.375Z,1912
2019-01-02T08:28:25.071Z,2020
2019-01-02T08:29:35.006Z,2068
2019-01-02T08:30:44.945Z,2072
2019-01-02T08:31:54.385Z,2060
2019-01-02T08:33:04.080Z,1940
2019-01-02T08:34:13.775Z,1976
2019-01-02T08:35:23.728Z,2292
2019-01-02T08:36:33.678Z,2440
2019-01-02T08:37:43.365Z,2444
2019-01-02T08:38:53.306Z,2548
2019-01-02T08:40:02.988Z,2640
2019-01-02T08:41:12.666Z,2576
2019-01-02T08:42:22.658Z,2408
2019-01-02T08:43:32.347Z,2444
2019-01-02T08:44:42.294Z,2740
2019-01-02T08:45:52.247Z,3012
2019-01-02T08:47:01.941Z,3124
2019-01-02T08:48:11.895Z,3088
2019-01-02T08:49:21.819Z,3116
2019-01-02T08:50:31.764Z,3148
2019-01-02T08:51:41.727Z,3032
2019-01-02T08:52:51.440Z,2712
2019-01-02T08:54:01.377Z,2524
2019-01-02T08:55:11.083Z,2080
2019-01-02T08:56:21.007Z,1488
2019-01-02T08:57:30.947Z,1468
2019-01-02T08:58:40.907Z,1576
2019-01-02T08:59:50.842Z,1556
2019-01-02T09:01:00.531Z,1636
2019-01-02T09:02:10.470Z,1268
2019-01-02T09:03:20.421Z,1040
2019-01-02T09:04:30.124Z,808
2019-01-02T09:05:40.064Z,968
2019-01-02T09:06:49.778Z,1100
2019-01-02T09:07:59.734Z,1224
2019-01-02T09:09:10.083Z,1656
2019-01-02T09:10:19.826Z,2168
2019-01-02T09:11:29.510Z,3012
2019-01-02T09:12:39.456Z,4076
2019-01-02T09:13:49.461Z,3652
2019-01-02T09:14:59.142Z,2472
2019-01-02T09:16:09.099Z,1396
2019-01-02T09:17:18.783Z,1268
2019-01-02T09:18:28.727Z,1504
2019-01-02T09:19:38.423Z,1924
2019-01-02T09:20:48.383Z,2420
2019-01-02T09:21:58.331Z,2736
2019-01-02T09:23:08.037Z,3324
2019-01-02T09:24:17.735Z,3776
2019-01-02T09:25:27.425Z,4572
2019-01-02T09:26:37.362Z,6092
2019-01-02T09:27:47.306Z,7508
2019-01-02T09:28:56.992Z,7756
2019-01-02T09:30:06.941Z,8544
2019-01-02T09:31:16.889Z,8084
2019-01-02T09:32:26.821Z,7112
2019-01-02T09:33:36.745Z,6784
2019-01-02T09:34:46.706Z,7332
2019-01-02T09:35:58.128Z,6212
2019-01-02T09:37:08.059Z,5588
2019-01-02T09:38:18.006Z,5392
2019-01-02T09:39:27.714Z,5112
2019-01-02T09:40:37.828Z,3872
2019-01-02T09:41:47.667Z,2816
2019-01-02T09:42:57.710Z,2636
2019-01-02T09:44:07.407Z,3012
2019-01-02T09:45:17.374Z,3352
2019-01-02T09:46:27.579Z,4196
2019-01-02T09:47:37.850Z,5128
2019-01-02T09:48:47.803Z,5696
2019-01-02T09:49:57.749Z,5684
2019-01-02T09:51:07.812Z,5380
2019-01-02T09:52:17.501Z,4900
2019-01-02T09:53:27.188Z,4896
2019-01-02T09:54:37.136Z,4924
2019-01-02T09:55:46.835Z,4972
2019-01-02T09:56:56.766Z,5168
2019-01-02T09:58:06.457Z,5468
2019-01-02T09:59:16.407Z,5892
2019-01-02T10:00:26.347Z,6484
2019-01-02T10:01:36.300Z,6888
2019-01-02T10:02:45.990Z,6932
2019-01-02T10:03:55.945Z,6620
2019-01-02T10:05:05.897Z,7112
2019-01-02T10:06:15.583Z,7716
2019-01-02T10:07:25.538Z,7860
2019-01-02T10:08:35.236Z,7512
2019-01-02T10:09:44.930Z,7236
2019-01-02T10:10:54.621Z,6956
2019-01-02T10:12:04.540Z,7100
2019-01-02T10:13:14.497Z,7244
2019-01-02T10:14:23.951Z,7592
2019-01-02T10:15:33.905Z,8276
2019-01-02T10:16:43.852Z,8852
2019-01-02T10:17:53.539Z,9328
2019-01-02T10:19:03.471Z,9924
2019-01-02T10:20:13.421Z,10188
2019-01-02T10:21:23.358Z,10768
2019-01-02T10:22:33.069Z,11196
2019-01-02T10:23:42.780Z,11276
2019-01-02T10:24:52.703Z,11784
2019-01-02T10:26:02.401Z,12056
2019-01-02T10:27:12.359Z,12168
2019-01-02T10:28:22.294Z,12340
2019-01-02T10:29:31.997Z,12712
2019-01-02T10:30:41.677Z,13012
2019-01-02T10:31:51.850Z,13760
2019-01-02T10:33:01.551Z,14644
2019-01-02T10:34:11.547Z,15472
2019-01-02T10:35:21.249Z,16200
2019-01-02T10:36:30.943Z,17632
2019-01-02T10:37:40.656Z,18752
2019-01-02T10:38:50.095Z,19680
2019-01-02T10:39:59.788Z,20352
2019-01-02T10:41:09.732Z,21216
2019-01-02T10:42:19.675Z,21312
2019-01-02T10:43:29.621Z,20608
2019-01-02T10:44:39.331Z,20896
2019-01-02T10:45:49.279Z,21184
2019-01-02T10:46:58.960Z,22048
2019-01-02T10:48:08.914Z,21536
2019-01-02T10:49:18.860Z,21088
2019-01-02T10:50:28.815Z,21600
2019-01-02T10:51:38.761Z,22464
2019-01-02T10:52:49.294Z,24128
2019-01-02T10:53:59.242Z,26432
2019-01-02T10:55:09.207Z,23872
2019-01-02T10:56:19.155Z,22912
2019-01-02T10:57:28.839Z,23424
2019-01-02T10:58:43.733Z,23168
2019-01-02T10:59:53.689Z,28000
2019-01-02T11:01:03.638Z,27808
2019-01-02T11:02:13.594Z,25920
2019-01-02T11:03:23.545Z,21376
2019-01-02T11:04:33.234Z,21248
2019-01-02T11:05:42.925Z,21504
2019-01-02T11:06:52.891Z,22976
2019-01-02T11:08:02.839Z,24608
2019-01-02T11:09:12.790Z,37408
2019-01-02T11:10:22.226Z,26624
2019-01-02T11:11:31.910Z,23808
2019-01-02T11:12:42.049Z,22848
2019-01-02T11:13:51.754Z,21888
2019-01-02T11:15:01.439Z,21472
2019-01-02T11:16:11.390Z,22400
2019-01-02T11:17:22.168Z,23552
2019-01-02T11:18:31.610Z,39424
2019-01-02T11:19:41.568Z,48992
2019-01-02T11:20:51.517Z,35488
2019-01-02T11:22:01.448Z,30176
2019-01-02T11:23:11.402Z,59648
2019-01-02T11:24:21.092Z,72832
2019-01-02T11:25:31.030Z,69504
2019-01-02T11:26:40.972Z,69440
2019-01-02T11:27:50.929Z,67616
2019-01-02T11:29:00.616Z,70336
2019-01-02T11:30:10.574Z,70080
2019-01-02T11:31:20.276Z,67072
2019-01-02T11:32:30.216Z,30592
2019-01-02T11:33:40.199Z,27424
2019-01-02T11:34:50.141Z,17440
2019-01-02T11:36:00.097Z,13096
2019-01-02T11:37:09.529Z,11320
2019-01-02T11:38:19.472Z,10824
2019-01-02T11:39:29.424Z,11344
2019-01-02T11:40:39.372Z,12536
2019-01-02T11:41:49.108Z,13516
2019-01-02T11:42:59.053Z,13456
2019-01-02T11:44:08.756Z,12204
2019-01-02T11:45:18.461Z,11460
2019-01-02T11:46:28.451Z,12268
2019-01-02T11:47:38.393Z,11472
2019-01-02T11:48:48.347Z,10832
2019-01-02T11:49:58.288Z,12760
2019-01-02T11:51:09.008Z,15088
2019-01-02T11:52:18.974Z,19808
2019-01-02T11:53:28.670Z,17408
2019-01-02T11:54:38.366Z,17568
2019-01-02T11:55:48.310Z,19552
2019-01-02T11:56:57.984Z,60320
2019-01-02T11:58:07.952Z,23744
2019-01-02T11:59:17.644Z,48384
2019-01-02T12:00:27.593Z,17632
2019-01-02T12:01:37.047Z,40864
2019-01-02T12:02:46.991Z,75776
2019-01-02T12:03:56.933Z,70240
2019-01-02T12:05:06.876Z,75584
2019-01-02T12:06:16.820Z,63616
2019-01-02T12:07:26.764Z,32128
2019-01-02T12:08:36.462Z,11720
2019-01-02T12:09:46.405Z,12220
2019-01-02T12:10:56.360Z,48160
2019-01-02T12:12:06.310Z,10668
2019-01-02T12:13:16.263Z,10616
2019-01-02T12:14:26.236Z,11476
2019-01-02T12:15:36.174Z,52000
2019-01-02T12:16:46.110Z,12164
2019-01-02T12:17:56.057Z,78432
2019-01-02T12:19:05.768Z,74816
2019-01-02T12:20:15.708Z,72992
2019-01-02T12:21:25.161Z,73920
2019-01-02T12:22:34.866Z,70880
2019-01-02T12:23:44.855Z,68672
2019-01-02T12:24:54.820Z,62496
2019-01-02T12:26:04.797Z,75712
2019-01-02T12:27:14.514Z,48960
2019-01-02T12:28:24.457Z,66496
2019-01-02T12:29:34.398Z,83040
2019-01-02T12:30:44.123Z,69728
2019-01-02T12:31:54.069Z,71904
2019-01-02T12:33:03.789Z,66592
2019-01-02T12:34:14.450Z,68928
2019-01-02T12:35:23.898Z,58336
2019-01-02T12:36:33.592Z,68544
2019-01-02T12:37:43.296Z,69312
2019-01-02T12:38:53.246Z,64288
2019-01-02T12:40:03.189Z,67008
2019-01-02T12:41:13.156Z,67392
2019-01-02T12:42:22.609Z,67328
2019-01-02T12:43:32.552Z,69440
2019-01-02T12:44:42.242Z,65984
2019-01-02T12:45:52.251Z,66560
2019-01-02T12:47:02.206Z,69088
2019-01-02T12:48:12.140Z,63744
2019-01-02T12:49:21.837Z,70144
2019-01-02T12:50:31.302Z,68224
2019-01-02T12:51:41.248Z,68864
2019-01-02T12:52:50.707Z,65856
2019-01-02T12:54:00.415Z,68608
2019-01-02T12:55:10.621Z,69472
2019-01-02T12:56:20.573Z,66048
2019-01-02T12:57:30.524Z,72032
2019-01-02T12:58:40.214Z,59456
2019-01-02T12:59:50.235Z,71296
2019-01-02T13:01:00.208Z,13816
2019-01-02T13:02:10.168Z,18464
2019-01-02T13:03:20.140Z,12804
2019-01-02T13:04:30.095Z,11436
2019-01-02T13:05:40.766Z,11748
2019-01-02T13:06:50.482Z,16544
2019-01-02T13:08:00.440Z,67584
2019-01-02T13:09:10.153Z,44704
2019-01-02T13:10:19.854Z,59904
2019-01-02T13:11:29.797Z,58400
2019-01-02T13:12:39.737Z,56064
2019-01-02T13:13:49.684Z,37920
2019-01-02T13:14:59.638Z,38496
2019-01-02T13:16:09.594Z,59424
2019-01-02T13:17:19.048Z,55072
2019-01-02T13:18:28.736Z,47008
2019-01-02T13:19:38.704Z,12784
2019-01-02T13:20:48.404Z,12000
2019-01-02T13:21:58.354Z,10584
2019-01-02T13:23:07.558Z,9472
2019-01-02T13:24:17.262Z,8808
2019-01-02T13:25:27.216Z,8440
2019-01-02T13:26:37.167Z,7588
2019-01-02T13:27:46.864Z,41280
2019-01-02T13:28:56.571Z,12120
2019-01-02T13:30:06.522Z,7632
2019-01-02T13:31:16.466Z,5480
2019-01-02T13:32:25.894Z,5392
2019-01-02T13:33:35.854Z,5732
2019-01-02T13:34:45.819Z,6128
2019-01-02T13:35:55.761Z,8172
2019-01-02T13:37:04.971Z,7448
2019-01-02T13:38:14.940Z,7804
2019-01-02T13:39:24.904Z,9400
2019-01-02T13:40:34.598Z,25728
2019-01-02T13:41:44.310Z,16448
2019-01-02T13:42:54.256Z,6336
2019-01-02T13:44:03.963Z,5940
2019-01-02T13:45:13.417Z,25760
2019-01-02T13:46:23.356Z,17920
2019-01-02T13:47:33.292Z,11172
2019-01-02T13:48:43.237Z,14008
2019-01-02T13:49:53.221Z,24000
2019-01-02T13:51:03.730Z,18752
2019-01-02T13:52:14.007Z,11832
2019-01-02T13:53:23.959Z,15552
2019-01-02T13:54:33.904Z,8800
2019-01-02T13:55:43.848Z,7304
2019-01-02T13:56:53.792Z,6708
2019-01-02T13:58:03.496Z,6424
2019-01-02T13:59:12.940Z,5704
2019-01-02T14:00:22.904Z,4524
2019-01-02T14:01:32.875Z,5288
2019-01-02T14:02:42.840Z,8020
2019-01-02T14:03:52.780Z,3044
2019-01-02T14:05:02.786Z,2384
2019-01-02T14:06:12.234Z,2324
2019-01-02T14:07:22.182Z,2164
2019-01-02T14:08:32.132Z,1912
2019-01-02T14:09:41.844Z,1700
2019-01-02T14:10:51.539Z,1560
2019-01-02T14:12:00.974Z,1560
2019-01-02T14:13:10.672Z,1540
2019-01-02T14:14:20.614Z,1528
2019-01-02T14:15:30.306Z,1620
2019-01-02T14:16:40.018Z,1668
2019-01-02T14:17:49.978Z,1584
2019-01-02T14:18:59.920Z,1396
2019-01-02T14:20:09.876Z,1196
2019-01-02T14:21:19.834Z,1068
2019-01-02T14:22:29.506Z,1096
2019-01-02T14:23:39.210Z,1276
2019-01-02T14:24:49.152Z,1492
2019-01-02T14:25:59.107Z,1628
2019-01-02T14:27:09.039Z,1616
2019-01-02T14:28:18.985Z,1496
2019-01-02T14:29:28.942Z,1388
2019-01-02T14:30:38.647Z,1244
2019-01-02T14:31:48.346Z,1072
2019-01-02T14:32:57.795Z,896
2019-01-02T14:34:07.742Z,720
2019-01-02T14:35:22.269Z,588
2019-01-02T14:36:32.478Z,500
2019-01-02T14:37:42.432Z,476
2019-01-02T14:38:52.129Z,432
2019-01-02T14:40:02.075Z,368
2019-01-02T14:41:11.775Z,316
2019-01-02T14:42:21.718Z,300
2019-01-02T14:43:31.682Z,304
2019-01-02T14:44:41.647Z,292
2019-01-02T14:45:51.599Z,244
2019-01-02T14:47:01.544Z,328
2019-01-02T14:48:11.493Z,388
2019-01-02T14:49:21.261Z,408
2019-01-02T14:50:31.229Z,436
2019-01-02T14:51:40.932Z,472
2019-01-02T14:52:51.973Z,512
2019-01-02T14:54:01.943Z,540
2019-01-02T14:55:11.912Z,560
2019-01-02T14:56:21.614Z,572
2019-01-02T14:57:31.585Z,572
2019-01-02T14:58:41.541Z,568
2019-01-02T14:59:51.488Z,564
2019-01-02T15:01:01.202Z,560
2019-01-02T15:02:10.896Z,548
2019-01-02T15:03:20.589Z,536
2019-01-02T15:04:30.547Z,524
2019-01-02T15:05:40.489Z,504
2019-01-02T15:06:51.556Z,484
2019-01-02T15:08:01.499Z,464
2019-01-02T15:09:11.439Z,432
2019-01-02T15:10:21.398Z,400
2019-01-02T15:11:31.375Z,364
2019-01-02T15:12:41.335Z,328
2019-01-02T15:13:51.292Z,284
2019-01-02T15:15:01.237Z,244
2019-01-02T15:16:11.426Z,204
2019-01-02T15:17:21.406Z,156
2019-01-02T15:18:31.109Z,120
2019-01-02T15:19:40.821Z,92
2019-01-02T15:20:50.777Z,72
2019-01-02T15:22:04.805Z,64
2019-01-02T15:23:14.639Z,56
2019-01-02T15:24:24.332Z,52
2019-01-02T15:25:34.273Z,40
2019-01-02T15:26:44.211Z,28
2019-01-02T15:27:53.908Z,16
2019-01-02T15:29:03.608Z,12
2019-01-02T15:30:13.567Z,8
2019-01-02T15:31:23.527Z,4
2019-01-02T15:32:33.229Z,8
2019-01-02T15:33:43.189Z,4
2019-01-02T15:34:52.662Z,4
2019-01-02T15:36:02.629Z,0
2019-01-02T15:37:12.565Z,4
2019-01-02T15:38:22.552Z,0
2019-01-02T15:39:31.983Z,4
2019-01-02T15:40:41.425Z,4
2019-01-02T15:41:50.862Z,4
2019-01-02T15:43:00.533Z,4
2019-01-02T15:44:10.217Z,4
2019-01-02T15:45:19.919Z,4
2019-01-02T15:46:29.858Z,0
2019-01-02T15:47:39.805Z,0
2019-01-02T15:48:49.511Z,0
2019-01-02T15:49:59.469Z,0
2019-01-02T15:51:09.429Z,0
2019-01-02T15:52:18.872Z,0
2019-01-02T15:53:28.817Z,0
2019-01-02T15:54:38.742Z,0
2019-01-02T15:55:48.428Z,0
2019-01-02T15:56:58.373Z,0
2019-01-02T15:58:08.067Z,0
2019-01-02T15:59:17.758Z,0
2019-01-02T16:00:28.328Z,0
2019-01-02T16:01:38.267Z,0
2019-01-02T16:02:47.965Z,0
2019-01-02T16:03:57.667Z,0
2019-01-02T16:05:07.350Z,0
2019-01-02T16:06:17.085Z,0
2019-01-02T16:07:27.038Z,0
2019-01-02T16:08:37.177Z,0
2019-01-02T16:09:46.875Z,0
2019-01-02T16:10:56.569Z,0
2019-01-02T16:12:06.247Z,0
2019-01-02T16:13:16.195Z,0
2019-01-02T16:14:26.127Z,0
2019-01-02T16:15:35.819Z,0